createdAt,value
2018-01-17T00:02:00.617Z,20.90
2018-01-17T00:04:27.326Z,21.10
2018-01-17T00:06:54.048Z,20.90
2018-01-17T00:09:21.112Z,20.80
2018-01-17T00:11:48.225Z,20.80
2018-01-17T00:14:14.863Z,20.80
2018-01-17T00:16:41.604Z,20.80
2018-01-17T00:19:08.236Z,20.90
2018-01-17T00:21:35.084Z,20.90
2018-01-17T00:24:01.626Z,20.80
2018-01-17T00:26:28.311Z,20.80
2018-01-17T00:28:54.924Z,20.80
2018-01-17T00:31:21.669Z,20.80
2018-01-17T00:33:48.421Z,20.40
2018-01-17T00:36:15.168Z,20.40
2018-01-17T00:38:41.948Z,20.30
2018-01-17T00:41:08.996Z,20.30
2018-01-17T00:43:36.035Z,20.20
2018-01-17T00:46:02.369Z,20.10
2018-01-17T00:48:29.456Z,20.20
2018-01-17T00:50:55.846Z,20.40
2018-01-17T00:53:22.375Z,20.10
2018-01-17T00:55:48.946Z,20.20
2018-01-17T00:58:15.684Z,20.00
2018-01-17T01:00:42.435Z,20.20
2018-01-17T01:03:09.186Z,19.70
2018-01-17T01:05:35.990Z,20.00
2018-01-17T01:08:02.648Z,20.20
2018-01-17T01:10:29.521Z,20.10
2018-01-17T01:12:56.341Z,20.10
2018-01-17T01:15:23.013Z,19.70
2018-01-17T01:17:49.631Z,19.70
2018-01-17T01:20:16.231Z,20.20
2018-01-17T01:22:43.015Z,19.70
2018-01-17T01:25:09.667Z,19.80
2018-01-17T01:27:36.425Z,19.80
2018-01-17T01:30:03.159Z,19.80
2018-01-17T01:32:29.994Z,19.70
2018-01-17T01:34:56.658Z,19.80
2018-01-17T01:37:23.357Z,19.50
2018-01-17T01:39:50.139Z,19.70
2018-01-17T01:42:16.883Z,19.60
2018-01-17T01:44:43.724Z,19.60
2018-01-17T01:47:10.364Z,19.70
2018-01-17T01:49:37.211Z,19.80
2018-01-17T01:52:04.039Z,19.80
2018-01-17T01:54:30.682Z,19.70
2018-01-17T01:56:57.656Z,19.50
2018-01-17T01:59:24.311Z,19.50
2018-01-17T02:01:51.052Z,19.70
2018-01-17T02:04:17.826Z,19.70
2018-01-17T02:06:44.536Z,19.70
2018-01-17T02:09:11.303Z,19.70
2018-01-17T02:11:37.941Z,19.60
2018-01-17T02:14:04.834Z,19.70
2018-01-17T02:16:32.228Z,19.60
2018-01-17T02:18:59.003Z,19.70
2018-01-17T02:21:25.751Z,19.50
2018-01-17T02:23:52.488Z,19.60
2018-01-17T02:26:19.127Z,19.70
2018-01-17T02:28:45.791Z,19.60
2018-01-17T02:31:18.508Z,19.70
2018-01-17T02:33:45.193Z,19.60
2018-01-17T02:38:52.288Z,19.70
2018-01-17T02:41:18.596Z,19.80
2018-01-17T02:43:45.283Z,19.80
2018-01-17T02:46:11.991Z,19.60
2018-01-17T02:48:38.760Z,19.60
2018-01-17T02:51:05.443Z,19.60
2018-01-17T02:53:32.933Z,19.60
2018-01-17T02:55:59.238Z,19.60
2018-01-17T02:58:26.276Z,19.40
2018-01-17T03:00:52.571Z,19.60
2018-01-17T03:03:18.871Z,19.30
2018-01-17T03:05:46.081Z,19.50
2018-01-17T03:08:12.398Z,19.20
2018-01-17T03:10:38.750Z,19.10
2018-01-17T03:13:05.200Z,19.10
2018-01-17T03:15:31.532Z,19.60
2018-01-17T03:17:58.216Z,19.70
2018-01-17T03:20:25.517Z,19.50
2018-01-17T03:22:51.822Z,19.10
2018-01-17T03:25:18.872Z,18.90
2018-01-17T03:27:45.916Z,19.60
2018-01-17T03:30:13.396Z,19.20
2018-01-17T03:32:40.838Z,19.30
2018-01-17T03:35:07.881Z,19.60
2018-01-17T03:37:34.284Z,19.10
2018-01-17T03:40:00.586Z,19.00
2018-01-17T03:42:26.897Z,19.50
2018-01-17T03:44:53.192Z,19.20
2018-01-17T03:47:19.490Z,19.00
2018-01-17T03:49:46.698Z,18.90
2018-01-17T03:52:13.017Z,19.20
2018-01-17T03:54:39.768Z,19.00
2018-01-17T03:57:06.435Z,19.20
2018-01-17T03:59:34.226Z,19.10
2018-01-17T04:02:01.269Z,19.10
2018-01-17T04:04:28.004Z,18.90
2018-01-17T04:06:54.299Z,19.20
2018-01-17T04:09:20.709Z,19.00
2018-01-17T04:11:48.220Z,18.90
2018-01-17T04:14:14.522Z,19.20
2018-01-17T04:16:40.911Z,19.00
2018-01-17T04:19:07.211Z,19.20
2018-01-17T04:21:33.509Z,19.20
2018-01-17T04:24:00.556Z,18.90
2018-01-17T04:26:27.601Z,18.90
2018-01-17T04:28:53.932Z,19.00
2018-01-17T04:31:20.688Z,19.00
2018-01-17T04:33:47.735Z,18.90
2018-01-17T04:36:14.561Z,19.20
2018-01-17T04:38:40.861Z,18.90
2018-01-17T04:41:07.728Z,19.20
2018-01-17T04:43:34.316Z,18.90
2018-01-17T04:46:01.836Z,19.10
2018-01-17T04:48:28.131Z,18.90
2018-01-17T04:50:55.524Z,19.10
2018-01-17T04:53:21.819Z,19.10
2018-01-17T04:55:49.227Z,19.00
2018-01-17T04:58:15.785Z,19.10
2018-01-17T05:00:42.096Z,19.10
2018-01-17T05:03:08.392Z,19.00
2018-01-17T05:05:35.437Z,19.00
2018-01-17T05:08:02.481Z,19.10
2018-01-17T05:10:29.288Z,18.90
2018-01-17T05:12:55.583Z,19.10
2018-01-17T05:15:23.003Z,19.10
2018-01-17T05:17:49.332Z,19.20
2018-01-17T05:20:15.662Z,18.90
2018-01-17T05:22:41.984Z,18.90
2018-01-17T05:25:08.279Z,19.10
2018-01-17T05:27:35.332Z,19.10
2018-01-17T05:30:02.400Z,19.00
2018-01-17T05:32:28.708Z,18.90
2018-01-17T05:34:55.013Z,19.70
2018-01-17T05:37:21.311Z,19.80
2018-01-17T05:39:47.612Z,19.70
2018-01-17T05:42:13.907Z,20.30
2018-01-17T05:44:40.197Z,20.10
2018-01-17T05:47:07.238Z,20.30
2018-01-17T05:49:33.533Z,20.30
2018-01-17T05:51:59.842Z,20.40
2018-01-17T05:54:26.328Z,20.80
2018-01-17T05:56:53.128Z,20.80
2018-01-17T05:59:19.752Z,21.10
2018-01-17T06:01:47.381Z,20.90
2018-01-17T06:04:14.644Z,20.90
2018-01-17T06:06:40.992Z,20.90
2018-01-17T06:09:07.424Z,21.20
2018-01-17T06:11:34.169Z,21.00
2018-01-17T06:14:01.751Z,21.40
2018-01-17T06:16:28.444Z,21.10
2018-01-17T06:18:55.065Z,21.60
2018-01-17T06:21:22.388Z,21.10
2018-01-17T06:23:49.110Z,21.10
2018-01-17T06:26:15.766Z,21.80
2018-01-17T06:28:42.406Z,21.50
2018-01-17T06:31:09.279Z,21.70
2018-01-17T06:33:36.377Z,21.50
2018-01-17T06:36:03.055Z,21.80
2018-01-17T06:38:29.796Z,21.50
2018-01-17T06:40:56.639Z,21.60
2018-01-17T06:43:23.287Z,21.50
2018-01-17T06:45:50.230Z,21.50
2018-01-17T06:48:16.904Z,21.60
2018-01-17T06:50:43.533Z,21.70
2018-01-17T06:53:10.172Z,21.70
2018-01-17T06:55:36.908Z,21.00
2018-01-17T06:58:03.520Z,21.10
2018-01-17T07:00:30.279Z,21.10
2018-01-17T07:02:57.057Z,21.50
2018-01-17T07:05:23.816Z,21.30
2018-01-17T07:07:50.512Z,21.50
2018-01-17T07:10:17.211Z,21.10
2018-01-17T07:12:44.287Z,21.50
2018-01-17T07:15:10.785Z,21.50
2018-01-17T07:17:37.417Z,21.20
2018-01-17T07:20:04.123Z,21.80
2018-01-17T07:22:30.839Z,21.70
2018-01-17T07:24:58.364Z,21.50
2018-01-17T07:27:25.112Z,21.70
2018-01-17T07:29:51.879Z,21.50
2018-01-17T07:32:18.533Z,21.70
2018-01-17T07:34:45.608Z,21.50
2018-01-17T07:37:12.659Z,21.70
2018-01-17T07:39:40.084Z,21.50
2018-01-17T07:42:06.817Z,21.80
2018-01-17T07:44:33.561Z,21.50
2018-01-17T07:47:00.216Z,21.50
2018-01-17T07:49:27.173Z,21.20
2018-01-17T07:51:53.901Z,20.70
2018-01-17T07:54:20.578Z,20.30
2018-01-17T07:56:47.254Z,20.20
2018-01-17T07:59:14.061Z,19.60
2018-01-17T08:01:40.679Z,19.70
2018-01-17T08:04:07.424Z,20.00
2018-01-17T08:06:34.000Z,20.10
2018-01-17T08:09:00.763Z,20.20
2018-01-17T08:11:28.275Z,20.90
2018-01-17T08:13:55.021Z,20.80
2018-01-17T08:16:21.768Z,20.90
2018-01-17T08:18:48.409Z,20.80
2018-01-17T08:21:15.042Z,21.00
2018-01-17T08:23:41.792Z,20.90
2018-01-17T08:26:08.526Z,21.60
2018-01-17T08:28:35.207Z,20.90
2018-01-17T08:31:02.490Z,20.90
2018-01-17T08:33:30.021Z,21.00
2018-01-17T08:35:56.936Z,21.00
2018-01-17T08:38:23.884Z,21.20
2018-01-17T08:40:50.583Z,21.00
2018-01-17T08:43:17.457Z,21.60
2018-01-17T08:45:44.252Z,21.70
2018-01-17T08:48:10.848Z,21.10
2018-01-17T08:50:38.395Z,21.40
2018-01-17T08:53:05.205Z,21.00
2018-01-17T08:55:31.948Z,21.70
2018-01-17T08:57:58.593Z,21.40
2018-01-17T09:00:25.357Z,21.50
2018-01-17T09:02:52.109Z,21.50
2018-01-17T09:05:18.724Z,21.50
2018-01-17T09:07:45.471Z,21.50
2018-01-17T09:10:12.116Z,21.60
2018-01-17T09:12:38.965Z,21.50
2018-01-17T09:15:05.714Z,21.50
2018-01-17T09:17:32.414Z,21.60
2018-01-17T09:19:59.212Z,21.50
2018-01-17T09:22:26.021Z,21.80
2018-01-17T09:24:52.784Z,21.70
2018-01-17T09:27:19.648Z,21.60
2018-01-17T09:29:46.451Z,21.50
2018-01-17T09:32:13.136Z,21.80
2018-01-17T09:34:39.784Z,21.70
2018-01-17T09:37:06.524Z,21.90
2018-01-17T09:39:33.278Z,21.80
2018-01-17T09:41:59.925Z,21.50
2018-01-17T09:44:26.548Z,21.80
2018-01-17T09:46:53.306Z,21.90
2018-01-17T09:49:20.603Z,21.80
2018-01-17T09:51:48.017Z,21.90
2018-01-17T09:54:14.677Z,21.90
2018-01-17T09:56:41.463Z,21.90
2018-01-17T09:59:08.971Z,21.90
2018-01-17T10:01:35.749Z,21.70
2018-01-17T10:04:03.208Z,21.80
2018-01-17T10:06:29.922Z,21.80
2018-01-17T10:08:56.725Z,22.30
2018-01-17T10:11:24.141Z,22.20
2018-01-17T10:13:50.811Z,21.60
2018-01-17T10:16:17.628Z,21.60
2018-01-17T10:18:44.379Z,20.90
2018-01-17T10:21:11.117Z,20.90
2018-01-17T10:23:37.875Z,20.80
2018-01-17T10:26:04.721Z,20.70
2018-01-17T10:28:31.377Z,20.80
2018-01-17T10:30:57.983Z,20.80
2018-01-17T10:33:24.738Z,20.80
2018-01-17T10:35:51.536Z,20.20
2018-01-17T10:38:18.585Z,20.80
2018-01-17T10:40:45.085Z,20.30
2018-01-17T10:43:11.852Z,20.30
2018-01-17T10:45:38.661Z,20.30
2018-01-17T10:48:05.423Z,20.30
2018-01-17T10:50:32.059Z,20.70
2018-01-17T10:52:58.790Z,20.20
2018-01-17T10:55:25.896Z,20.20
2018-01-17T10:57:52.223Z,20.20
2018-01-17T11:00:18.905Z,20.20
2018-01-17T11:02:45.952Z,20.70
2018-01-17T11:05:12.991Z,20.70
2018-01-17T11:07:40.040Z,20.30
2018-01-17T11:10:07.195Z,20.20
2018-01-17T11:12:33.533Z,20.20
2018-01-17T11:15:00.042Z,20.20
2018-01-17T11:17:26.826Z,20.40
2018-01-17T11:19:53.867Z,20.10
2018-01-17T11:22:20.652Z,20.20
2018-01-17T11:24:47.603Z,20.40
2018-01-17T11:27:14.495Z,20.70
2018-01-17T11:29:41.234Z,20.90
2018-01-17T11:32:08.008Z,20.90
2018-01-17T11:34:34.816Z,21.20
2018-01-17T11:37:01.776Z,21.50
2018-01-17T11:39:28.543Z,21.40
2018-01-17T11:41:55.306Z,21.30
2018-01-17T11:44:22.360Z,21.50
2018-01-17T11:46:49.484Z,21.60
2018-01-17T11:49:16.325Z,21.40
2018-01-17T11:51:43.065Z,21.70
2018-01-17T11:54:09.912Z,21.70
2018-01-17T11:56:36.589Z,21.80
2018-01-17T11:59:03.410Z,21.40
2018-01-17T12:01:30.118Z,21.60
2018-01-17T12:03:56.820Z,21.50
2018-01-17T12:06:23.561Z,21.80
2018-01-17T12:08:50.367Z,21.60
2018-01-17T12:11:17.090Z,21.70
2018-01-17T12:13:43.753Z,21.80
2018-01-17T12:16:10.431Z,21.80
2018-01-17T12:18:37.163Z,21.70
2018-01-17T12:21:04.027Z,21.90
2018-01-17T12:23:30.783Z,21.80
2018-01-17T12:25:57.617Z,22.20
2018-01-17T12:28:24.239Z,22.00
2018-01-17T12:30:50.996Z,22.00
2018-01-17T12:33:18.006Z,22.00
2018-01-17T12:35:45.415Z,21.40
2018-01-17T12:38:12.179Z,21.10
2018-01-17T12:40:39.006Z,20.90
2018-01-17T12:43:05.588Z,20.80
2018-01-17T12:45:32.689Z,20.90
2018-01-17T12:47:59.388Z,21.00
2018-01-17T12:50:26.901Z,21.60
2018-01-17T12:52:53.728Z,21.90
2018-01-17T12:55:20.432Z,21.50
2018-01-17T12:57:47.965Z,21.40
2018-01-17T13:00:14.728Z,21.60
2018-01-17T13:02:41.348Z,21.60
2018-01-17T13:05:08.007Z,20.90
2018-01-17T13:07:34.743Z,20.90
2018-01-17T13:10:01.397Z,20.80
2018-01-17T13:12:28.152Z,20.30
2018-01-17T13:14:54.910Z,20.20
2018-01-17T13:17:21.650Z,20.30
2018-01-17T13:19:48.396Z,20.30
2018-01-17T13:22:14.982Z,20.20
2018-01-17T13:24:41.685Z,20.80
2018-01-17T13:27:08.505Z,20.80
2018-01-17T13:29:35.164Z,20.90
2018-01-17T13:32:01.888Z,20.80
2018-01-17T13:34:28.519Z,20.70
2018-01-17T13:36:55.268Z,21.00
2018-01-17T13:39:22.088Z,21.10
2018-01-17T13:41:49.031Z,20.90
2018-01-17T13:44:16.131Z,20.70
2018-01-17T13:46:42.521Z,20.90
2018-01-17T13:49:09.606Z,20.70
2018-01-17T13:51:36.278Z,20.80
2018-01-17T13:54:02.923Z,20.80
2018-01-17T13:56:29.617Z,20.80
2018-01-17T13:58:56.401Z,21.70
2018-01-17T14:01:23.250Z,21.60
2018-01-17T14:03:50.099Z,21.50
2018-01-17T14:06:16.919Z,21.30
2018-01-17T14:08:43.584Z,21.00
2018-01-17T14:11:10.349Z,20.70
2018-01-17T14:13:37.080Z,20.80
2018-01-17T14:16:03.826Z,20.70
2018-01-17T14:18:30.568Z,20.90
2018-01-17T14:20:57.312Z,20.60
2018-01-17T14:23:24.016Z,20.70
2018-01-17T14:25:51.596Z,20.70
2018-01-17T14:28:18.304Z,20.80
2018-01-17T14:30:45.071Z,20.80
2018-01-17T14:33:12.120Z,20.80
2018-01-17T14:35:39.208Z,20.40
2018-01-17T14:38:05.556Z,20.80
2018-01-17T14:40:32.156Z,20.40
2018-01-17T14:43:05.326Z,21.00
2018-01-17T14:45:31.701Z,20.80
2018-01-17T14:47:58.493Z,20.80
2018-01-17T14:50:25.345Z,20.90
2018-01-17T14:52:52.206Z,20.90
2018-01-17T14:55:19.312Z,20.80
2018-01-17T14:57:45.781Z,20.90
2018-01-17T15:00:16.566Z,20.10
2018-01-17T15:02:43.356Z,20.20
2018-01-17T15:05:10.044Z,20.40
2018-01-17T15:07:37.088Z,20.70
2018-01-17T15:10:04.137Z,20.80
2018-01-17T15:12:30.491Z,20.90
2018-01-17T15:15:05.936Z,20.80
2018-01-17T15:17:32.475Z,20.70
2018-01-17T15:19:59.278Z,20.90
2018-01-17T15:22:25.876Z,21.00
2018-01-17T15:24:52.952Z,20.80
2018-01-17T15:27:19.347Z,20.90
2018-01-17T15:29:45.835Z,20.80
2018-01-17T15:32:12.518Z,20.80
2018-01-17T15:34:39.416Z,20.80
2018-01-17T15:37:06.126Z,21.40
2018-01-17T15:39:32.948Z,21.70
2018-01-17T15:41:59.621Z,21.80
2018-01-17T15:44:26.432Z,21.90
2018-01-17T15:46:53.174Z,21.70
2018-01-17T15:49:20.741Z,22.10
2018-01-17T15:51:47.461Z,22.40
2018-01-17T15:54:14.172Z,22.30
2018-01-17T15:56:40.851Z,22.40
2018-01-17T15:59:07.530Z,22.40
2018-01-17T16:01:34.084Z,22.30
2018-01-17T16:04:00.837Z,21.70
2018-01-17T16:06:27.694Z,21.60
2018-01-17T16:08:54.409Z,21.60
2018-01-17T16:11:21.218Z,21.50
2018-01-17T16:13:48.638Z,21.40
2018-01-17T16:16:15.276Z,21.40
2018-01-17T16:18:41.950Z,21.50
2018-01-17T16:21:09.413Z,21.70
2018-01-17T16:23:36.500Z,22.00
2018-01-17T16:26:02.874Z,21.70
2018-01-17T16:28:29.411Z,22.20
2018-01-17T16:30:56.258Z,22.20
2018-01-17T16:33:23.092Z,22.30
2018-01-17T16:35:49.929Z,22.40
2018-01-17T16:38:16.687Z,22.50
2018-01-17T16:40:43.240Z,22.50
2018-01-17T16:43:09.909Z,22.60
2018-01-17T16:45:36.677Z,22.60
2018-01-17T16:48:03.496Z,22.40
2018-01-17T16:50:30.208Z,22.50
2018-01-17T16:52:56.881Z,22.60
2018-01-17T16:55:23.699Z,22.50
2018-01-17T16:57:50.349Z,22.60
2018-01-17T17:00:17.094Z,22.50
2018-01-17T17:02:43.885Z,22.40
2018-01-17T17:05:10.953Z,22.00
2018-01-17T17:07:37.782Z,22.30
2018-01-17T17:10:04.874Z,21.50
2018-01-17T17:12:31.272Z,21.50
2018-01-17T17:14:58.341Z,21.50
2018-01-17T17:17:25.133Z,21.50
2018-01-17T17:19:51.814Z,21.70
2018-01-17T17:22:19.271Z,21.40
2018-01-17T17:24:46.095Z,21.10
2018-01-17T17:27:12.826Z,21.70
2018-01-17T17:29:39.597Z,21.90
2018-01-17T17:32:06.336Z,22.00
2018-01-17T17:34:32.929Z,22.50
2018-01-17T17:36:59.657Z,22.50
2018-01-17T17:39:27.283Z,21.60
2018-01-17T17:41:54.032Z,21.80
2018-01-17T17:44:20.999Z,21.70
2018-01-17T17:46:47.919Z,21.00
2018-01-17T17:49:14.769Z,20.90
2018-01-17T17:51:41.485Z,20.90
2018-01-17T17:54:08.175Z,20.90
2018-01-17T17:56:34.887Z,20.90
2018-01-17T17:59:02.705Z,20.80
2018-01-17T18:01:29.440Z,20.90
2018-01-17T18:03:56.109Z,21.00
2018-01-17T18:06:23.670Z,21.40
2018-01-17T18:08:51.040Z,21.50
2018-01-17T18:11:17.672Z,21.60
2018-01-17T18:13:45.020Z,21.40
2018-01-17T18:16:11.650Z,21.50
2018-01-17T18:18:38.451Z,21.50
2018-01-17T18:21:05.248Z,21.60
2018-01-17T18:23:32.030Z,21.60
2018-01-17T18:25:59.429Z,22.30
2018-01-17T18:28:26.039Z,22.20
2018-01-17T18:30:52.840Z,22.50
2018-01-17T18:33:26.390Z,22.40
2018-01-17T18:35:53.019Z,22.60
2018-01-17T18:38:20.428Z,22.80
2018-01-17T18:40:47.186Z,22.60
2018-01-17T18:43:13.799Z,23.20
2018-01-17T18:45:40.429Z,23.00
2018-01-17T18:48:07.450Z,23.10
2018-01-17T18:50:34.891Z,23.10
2018-01-17T18:53:01.515Z,23.20
2018-01-17T18:55:28.108Z,23.20
2018-01-17T18:57:54.732Z,23.10
2018-01-17T19:00:21.409Z,23.00
2018-01-17T19:02:48.197Z,22.90
2018-01-17T19:05:14.879Z,22.90
2018-01-17T19:07:42.290Z,22.80
2018-01-17T19:10:08.970Z,22.70
2018-01-17T19:12:35.605Z,22.70
2018-01-17T19:15:02.306Z,22.70
2018-01-17T19:17:29.804Z,22.70
2018-01-17T19:19:56.662Z,23.00
2018-01-17T19:22:23.652Z,22.60
2018-01-17T19:24:50.637Z,22.60
2018-01-17T19:27:17.450Z,22.60
2018-01-17T19:29:44.360Z,22.60
2018-01-17T19:32:11.154Z,22.50
2018-01-17T19:34:38.176Z,22.80
2018-01-17T19:37:05.632Z,23.00
2018-01-17T19:39:32.278Z,23.20
2018-01-17T19:41:59.081Z,23.10
2018-01-17T19:44:25.727Z,23.20
2018-01-17T19:46:52.338Z,23.20
2018-01-17T19:49:19.032Z,23.00
2018-01-17T19:51:45.678Z,23.00
2018-01-17T19:54:12.437Z,23.10
2018-01-17T19:56:39.159Z,23.10
2018-01-17T19:59:06.213Z,23.10
2018-01-17T20:01:32.864Z,23.00
2018-01-17T20:03:59.531Z,22.90
2018-01-17T20:06:27.022Z,22.80
2018-01-17T20:08:53.904Z,22.90
2018-01-17T20:11:20.767Z,22.80
2018-01-17T20:13:47.455Z,22.60
2018-01-17T20:16:14.360Z,22.70
2018-01-17T20:18:41.058Z,22.80
2018-01-17T20:21:07.935Z,22.90
2018-01-17T20:23:34.697Z,22.60
2018-01-17T20:26:01.754Z,22.60
2018-01-17T20:28:28.556Z,22.40
2018-01-17T20:30:55.550Z,22.30
2018-01-17T20:33:22.292Z,22.80
2018-01-17T20:35:48.974Z,23.00
2018-01-17T20:38:16.492Z,23.30
2018-01-17T20:40:43.110Z,23.30
2018-01-17T20:43:10.013Z,23.40
2018-01-17T20:45:37.564Z,23.60
2018-01-17T20:48:04.316Z,23.30
2018-01-17T20:50:31.880Z,23.50
2018-01-17T20:53:00.336Z,23.40
2018-01-17T20:55:27.212Z,23.50
2018-01-17T20:57:53.995Z,23.40
2018-01-17T21:00:21.538Z,23.30
2018-01-17T21:02:48.452Z,23.30
2018-01-17T21:05:15.278Z,23.30
2018-01-17T21:07:41.992Z,23.30
2018-01-17T21:10:09.648Z,23.30
2018-01-17T21:12:36.460Z,23.30
2018-01-17T21:15:03.113Z,23.20
2018-01-17T21:17:29.769Z,23.20
2018-01-17T21:19:56.621Z,23.20
2018-01-17T21:22:23.346Z,23.20
2018-01-17T21:24:49.947Z,23.20
2018-01-17T21:27:16.290Z,23.20
2018-01-17T21:29:42.694Z,23.20
2018-01-17T21:32:09.740Z,23.00
2018-01-17T21:34:36.569Z,23.20
2018-01-17T21:37:03.356Z,23.20
2018-01-17T21:39:30.436Z,23.40
2018-01-17T21:41:56.787Z,23.30
2018-01-17T21:44:29.308Z,23.40
2018-01-17T21:46:56.387Z,23.40
2018-01-17T21:49:23.093Z,23.30
2018-01-17T21:51:49.428Z,23.20
2018-01-17T21:54:16.118Z,23.10
2018-01-17T21:56:42.441Z,23.00
2018-01-17T21:59:09.870Z,22.90
2018-01-17T22:01:36.201Z,23.10
2018-01-17T22:04:02.824Z,23.00
2018-01-17T22:06:29.153Z,23.10
2018-01-17T22:08:55.472Z,23.10
2018-01-17T22:11:22.144Z,23.10
2018-01-17T22:13:48.453Z,23.20
2018-01-17T22:16:14.764Z,23.10
2018-01-17T22:18:41.818Z,23.20
2018-01-17T22:21:35.174Z,23.20
2018-01-17T22:24:01.889Z,23.20
2018-01-17T22:26:28.559Z,23.10
2018-01-17T22:28:55.304Z,23.10
2018-01-17T22:31:22.434Z,23.00
2018-01-17T22:33:48.955Z,23.00
2018-01-17T22:36:15.833Z,22.90
2018-01-17T22:38:42.688Z,22.90
2018-01-17T22:41:09.173Z,22.90
2018-01-17T22:43:36.630Z,22.80
2018-01-17T22:46:03.913Z,22.80
2018-01-17T22:48:30.757Z,23.10
2018-01-17T22:50:57.148Z,22.70
2018-01-17T22:53:23.541Z,22.70
2018-01-17T22:55:50.275Z,22.70
2018-01-17T22:58:16.684Z,22.70
2018-01-17T23:00:44.314Z,22.40
2018-01-17T23:03:10.974Z,22.50
2018-01-17T23:05:37.502Z,22.30
2018-01-17T23:08:04.082Z,22.50
2018-01-17T23:10:31.644Z,22.00
2018-01-17T23:12:58.924Z,21.90
2018-01-17T23:15:25.413Z,21.70
2018-01-17T23:17:52.189Z,21.80
2018-01-17T23:20:19.436Z,21.90
2018-01-17T23:22:46.697Z,21.50
2018-01-17T23:25:13.499Z,21.60
2018-01-17T23:27:40.341Z,21.90
2018-01-17T23:30:06.834Z,21.80
2018-01-17T23:32:33.408Z,21.40
2018-01-17T23:34:59.959Z,21.70
2018-01-17T23:37:26.320Z,21.50
2018-01-17T23:39:53.058Z,21.50
2018-01-17T23:42:19.735Z,21.20
2018-01-17T23:44:46.236Z,21.00
2018-01-17T23:47:12.594Z,21.00
2018-01-17T23:49:38.981Z,20.90
2018-01-17T23:52:05.731Z,21.00
2018-01-17T23:54:32.144Z,21.00
2018-01-17T23:56:58.500Z,20.90
2018-01-17T23:59:24.887Z,20.90
